sensor_id;sensor_type;location;lat;lon;timestamp;temperature;humidity
8611;DHT22;4343;53.648;10.098;2023-06-14T00:00:11;15.70;99.90
8611;DHT22;4343;53.648;10.098;2023-06-14T00:02:40;15.70;99.90
8611;DHT22;4343;53.648;10.098;2023-06-14T00:05:06;15.70;99.90
8611;DHT22;4343;53.648;10.098;2023-06-14T00:07:36;15.70;99.90
8611;DHT22;4343;53.648;10.098;2023-06-14T00:10:03;15.70;99.90
8611;DHT22;4343;53.648;10.098;2023-06-14T00:12:30;15.60;99.90
8611;DHT22;4343;53.648;10.098;2023-06-14T00:14:56;15.60;99.90
8611;DHT22;4343;53.648;10.098;2023-06-14T00:17:22;15.60;99.90
8611;DHT22;4343;53.648;10.098;2023-06-14T00:19:48;15.60;99.90
8611;DHT22;4343;53.648;10.098;2023-06-14T00:22:13;15.60;99.90
8611;DHT22;4343;53.648;10.098;2023-06-14T00:24:39;15.60;99.90
8611;DHT22;4343;53.648;10.098;2023-06-14T00:27:05;15.50;99.90
8611;DHT22;4343;53.648;10.098;2023-06-14T00:29:30;15.50;99.90
8611;DHT22;4343;53.648;10.098;2023-06-14T00:31:56;15.40;99.90
8611;DHT22;4343;53.648;10.098;2023-06-14T00:34:21;15.40;99.90
8611;DHT22;4343;53.648;10.098;2023-06-14T00:36:47;15.40;99.90
8611;DHT22;4343;53.648;10.098;2023-06-14T00:39:12;15.40;99.90
8611;DHT22;4343;53.648;10.098;2023-06-14T00:41:39;15.30;99.90
8611;DHT22;4343;53.648;10.098;2023-06-14T00:44:05;15.30;99.90
8611;DHT22;4343;53.648;10.098;2023-06-14T00:46:30;15.30;99.90
8611;DHT22;4343;53.648;10.098;2023-06-14T00:48:56;15.30;99.90
8611;DHT22;4343;53.648;10.098;2023-06-14T00:51:24;15.30;99.90
8611;DHT22;4343;53.648;10.098;2023-06-14T00:53:51;15.20;99.90
8611;DHT22;4343;53.648;10.098;2023-06-14T00:56:16;15.20;99.90
8611;DHT22;4343;53.648;10.098;2023-06-14T00:58:46;15.20;99.90
8611;DHT22;4343;53.648;10.098;2023-06-14T01:01:12;15.10;99.90
8611;DHT22;4343;53.648;10.098;2023-06-14T01:03:38;15.10;99.90
8611;DHT22;4343;53.648;10.098;2023-06-14T01:11:50;15.00;99.90
8611;DHT22;4343;53.648;10.098;2023-06-14T01:14:18;15.00;99.90
8611;DHT22;4343;53.648;10.098;2023-06-14T01:16:45;15.00;99.90
8611;DHT22;4343;53.648;10.098;2023-06-14T01:19:12;15.00;99.90
8611;DHT22;4343;53.648;10.098;2023-06-14T01:21:39;14.90;99.90
8611;DHT22;4343;53.648;10.098;2023-06-14T01:24:10;14.90;99.90
8611;DHT22;4343;53.648;10.098;2023-06-14T01:26:36;14.90;99.90
8611;DHT22;4343;53.648;10.098;2023-06-14T01:29:04;14.90;99.90
8611;DHT22;4343;53.648;10.098;2023-06-14T01:31:30;14.90;99.90
8611;DHT22;4343;53.648;10.098;2023-06-14T01:34:06;14.90;99.90
8611;DHT22;4343;53.648;10.098;2023-06-14T01:36:32;14.90;99.90
8611;DHT22;4343;53.648;10.098;2023-06-14T01:38:59;14.80;99.90
8611;DHT22;4343;53.648;10.098;2023-06-14T01:41:25;14.80;99.90
8611;DHT22;4343;53.648;10.098;2023-06-14T01:43:52;14.80;99.90
8611;DHT22;4343;53.648;10.098;2023-06-14T01:46:18;14.80;99.90
8611;DHT22;4343;53.648;10.098;2023-06-14T01:48:45;14.70;99.90
8611;DHT22;4343;53.648;10.098;2023-06-14T01:51:10;14.70;99.90
8611;DHT22;4343;53.648;10.098;2023-06-14T01:53:36;14.70;99.90
8611;DHT22;4343;53.648;10.098;2023-06-14T01:56:01;14.70;99.90
8611;DHT22;4343;53.648;10.098;2023-06-14T01:58:27;14.60;99.90
8611;DHT22;4343;53.648;10.098;2023-06-14T02:00:53;14.60;99.90
8611;DHT22;4343;53.648;10.098;2023-06-14T02:03:20;14.60;99.90
8611;DHT22;4343;53.648;10.098;2023-06-14T02:05:46;14.60;99.90
8611;DHT22;4343;53.648;10.098;2023-06-14T02:08:12;14.60;99.90
8611;DHT22;4343;53.648;10.098;2023-06-14T02:10:37;14.60;99.90
8611;DHT22;4343;53.648;10.098;2023-06-14T02:13:03;14.60;99.90
8611;DHT22;4343;53.648;10.098;2023-06-14T02:15:28;14.50;99.90
8611;DHT22;4343;53.648;10.098;2023-06-14T02:17:59;14.50;99.90
8611;DHT22;4343;53.648;10.098;2023-06-14T02:20:25;14.50;99.90
8611;DHT22;4343;53.648;10.098;2023-06-14T02:22:51;14.50;99.90
8611;DHT22;4343;53.648;10.098;2023-06-14T02:25:16;14.50;99.90
8611;DHT22;4343;53.648;10.098;2023-06-14T02:27:42;14.50;99.90
8611;DHT22;4343;53.648;10.098;2023-06-14T02:30:07;14.40;99.90
8611;DHT22;4343;53.648;10.098;2023-06-14T02:32:33;14.40;99.90
8611;DHT22;4343;53.648;10.098;2023-06-14T02:35:02;14.40;99.90
8611;DHT22;4343;53.648;10.098;2023-06-14T02:37:27;14.40;99.90
8611;DHT22;4343;53.648;10.098;2023-06-14T02:39:53;14.40;99.90
8611;DHT22;4343;53.648;10.098;2023-06-14T02:42:19;14.30;99.90
8611;DHT22;4343;53.648;10.098;2023-06-14T02:44:44;14.30;99.90
8611;DHT22;4343;53.648;10.098;2023-06-14T02:47:12;14.30;99.90
8611;DHT22;4343;53.648;10.098;2023-06-14T02:49:37;14.30;99.90
8611;DHT22;4343;53.648;10.098;2023-06-14T02:52:03;14.30;99.90
8611;DHT22;4343;53.648;10.098;2023-06-14T02:54:29;14.30;99.90
8611;DHT22;4343;53.648;10.098;2023-06-14T02:56:54;14.30;99.90
8611;DHT22;4343;53.648;10.098;2023-06-14T02:59:20;14.30;99.90
8611;DHT22;4343;53.648;10.098;2023-06-14T03:01:46;14.20;99.90
8611;DHT22;4343;53.648;10.098;2023-06-14T03:04:12;14.20;99.90
8611;DHT22;4343;53.648;10.098;2023-06-14T03:06:37;14.20;99.90
8611;DHT22;4343;53.648;10.098;2023-06-14T03:09:04;14.20;99.90
8611;DHT22;4343;53.648;10.098;2023-06-14T03:11:33;14.20;99.90
8611;DHT22;4343;53.648;10.098;2023-06-14T03:13:58;14.20;99.90
8611;DHT22;4343;53.648;10.098;2023-06-14T03:16:24;14.20;99.90
8611;DHT22;4343;53.648;10.098;2023-06-14T03:18:53;14.20;99.90
8611;DHT22;4343;53.648;10.098;2023-06-14T03:21:19;14.10;99.90
8611;DHT22;4343;53.648;10.098;2023-06-14T03:23:46;14.10;99.90
8611;DHT22;4343;53.648;10.098;2023-06-14T03:26:12;14.10;99.90
8611;DHT22;4343;53.648;10.098;2023-06-14T03:28:40;14.10;99.90
8611;DHT22;4343;53.648;10.098;2023-06-14T03:31:06;14.10;99.90
8611;DHT22;4343;53.648;10.098;2023-06-14T03:33:32;14.10;99.90
8611;DHT22;4343;53.648;10.098;2023-06-14T03:35:57;14.10;99.90
8611;DHT22;4343;53.648;10.098;2023-06-14T03:38:23;14.00;99.90
8611;DHT22;4343;53.648;10.098;2023-06-14T03:40:48;14.00;99.90
8611;DHT22;4343;53.648;10.098;2023-06-14T03:43:14;14.00;99.90
8611;DHT22;4343;53.648;10.098;2023-06-14T03:45:39;14.10;99.90
8611;DHT22;4343;53.648;10.098;2023-06-14T03:48:05;14.00;99.90
8611;DHT22;4343;53.648;10.098;2023-06-14T03:50:32;14.10;99.90
8611;DHT22;4343;53.648;10.098;2023-06-14T03:52:58;14.10;99.90
8611;DHT22;4343;53.648;10.098;2023-06-14T03:55:23;14.10;99.90
8611;DHT22;4343;53.648;10.098;2023-06-14T03:57:51;14.10;99.90
8611;DHT22;4343;53.648;10.098;2023-06-14T04:00:17;14.10;99.90
8611;DHT22;4343;53.648;10.098;2023-06-14T04:02:43;14.10;99.90
8611;DHT22;4343;53.648;10.098;2023-06-14T04:05:12;14.10;99.90
8611;DHT22;4343;53.648;10.098;2023-06-14T04:07:38;14.10;99.90
8611;DHT22;4343;53.648;10.098;2023-06-14T04:10:06;14.20;99.90
8611;DHT22;4343;53.648;10.098;2023-06-14T04:12:33;14.20;99.90
8611;DHT22;4343;53.648;10.098;2023-06-14T04:14:59;14.10;99.90
8611;DHT22;4343;53.648;10.098;2023-06-14T04:17:24;14.20;99.90
8611;DHT22;4343;53.648;10.098;2023-06-14T04:19:50;14.20;99.90
8611;DHT22;4343;53.648;10.098;2023-06-14T04:22:15;14.20;99.90
8611;DHT22;4343;53.648;10.098;2023-06-14T04:24:41;14.30;99.90
8611;DHT22;4343;53.648;10.098;2023-06-14T04:27:08;14.30;99.90
8611;DHT22;4343;53.648;10.098;2023-06-14T04:29:33;14.40;99.90
8611;DHT22;4343;53.648;10.098;2023-06-14T04:31:59;14.50;99.90
8611;DHT22;4343;53.648;10.098;2023-06-14T04:34:28;14.40;99.90
8611;DHT22;4343;53.648;10.098;2023-06-14T04:36:59;14.50;99.90
8611;DHT22;4343;53.648;10.098;2023-06-14T04:39:26;14.50;99.90
8611;DHT22;4343;53.648;10.098;2023-06-14T04:41:53;14.60;99.90
8611;DHT22;4343;53.648;10.098;2023-06-14T04:44:23;14.60;99.90
8611;DHT22;4343;53.648;10.098;2023-06-14T04:46:58;14.70;99.90
8611;DHT22;4343;53.648;10.098;2023-06-14T04:49:24;14.70;99.90
8611;DHT22;4343;53.648;10.098;2023-06-14T04:51:52;14.70;99.90
8611;DHT22;4343;53.648;10.098;2023-06-14T04:54:23;14.80;99.90
8611;DHT22;4343;53.648;10.098;2023-06-14T04:56:50;14.90;99.90
8611;DHT22;4343;53.648;10.098;2023-06-14T04:59:16;14.90;99.90
8611;DHT22;4343;53.648;10.098;2023-06-14T05:01:42;14.90;99.90
8611;DHT22;4343;53.648;10.098;2023-06-14T05:04:13;15.00;99.90
8611;DHT22;4343;53.648;10.098;2023-06-14T05:06:38;15.00;99.90
8611;DHT22;4343;53.648;10.098;2023-06-14T05:09:04;15.10;99.90
8611;DHT22;4343;53.648;10.098;2023-06-14T05:11:29;15.20;99.90
8611;DHT22;4343;53.648;10.098;2023-06-14T05:13:55;15.20;99.90
8611;DHT22;4343;53.648;10.098;2023-06-14T05:16:20;15.30;99.90
8611;DHT22;4343;53.648;10.098;2023-06-14T05:18:48;15.40;99.90
8611;DHT22;4343;53.648;10.098;2023-06-14T05:21:13;15.40;99.90
8611;DHT22;4343;53.648;10.098;2023-06-14T05:23:42;15.50;99.90
8611;DHT22;4343;53.648;10.098;2023-06-14T05:26:09;15.60;99.90
8611;DHT22;4343;53.648;10.098;2023-06-14T05:28:35;15.70;99.90
8611;DHT22;4343;53.648;10.098;2023-06-14T05:31:01;15.80;99.90
8611;DHT22;4343;53.648;10.098;2023-06-14T05:33:27;15.90;99.90
8611;DHT22;4343;53.648;10.098;2023-06-14T05:35:52;16.00;99.90
8611;DHT22;4343;53.648;10.098;2023-06-14T05:38:18;16.10;99.90
8611;DHT22;4343;53.648;10.098;2023-06-14T05:40:43;16.20;99.90
8611;DHT22;4343;53.648;10.098;2023-06-14T05:43:09;16.30;99.90
8611;DHT22;4343;53.648;10.098;2023-06-14T05:45:35;16.40;99.90
8611;DHT22;4343;53.648;10.098;2023-06-14T05:48:01;16.50;99.90
8611;DHT22;4343;53.648;10.098;2023-06-14T05:50:26;16.60;99.90
8611;DHT22;4343;53.648;10.098;2023-06-14T05:52:53;16.80;99.90
8611;DHT22;4343;53.648;10.098;2023-06-14T05:55:19;16.90;99.90
8611;DHT22;4343;53.648;10.098;2023-06-14T05:57:45;17.00;99.90
8611;DHT22;4343;53.648;10.098;2023-06-14T06:00:11;17.20;99.90
8611;DHT22;4343;53.648;10.098;2023-06-14T06:02:42;17.30;99.90
8611;DHT22;4343;53.648;10.098;2023-06-14T06:05:12;17.50;99.90
8611;DHT22;4343;53.648;10.098;2023-06-14T06:07:38;17.60;99.90
8611;DHT22;4343;53.648;10.098;2023-06-14T06:10:06;17.80;99.90
8611;DHT22;4343;53.648;10.098;2023-06-14T06:12:31;17.90;99.90
8611;DHT22;4343;53.648;10.098;2023-06-14T06:14:58;18.10;99.90
8611;DHT22;4343;53.648;10.098;2023-06-14T06:17:25;18.20;99.90
8611;DHT22;4343;53.648;10.098;2023-06-14T06:19:50;18.40;99.90
8611;DHT22;4343;53.648;10.098;2023-06-14T06:22:16;18.50;99.90
8611;DHT22;4343;53.648;10.098;2023-06-14T06:24:42;18.80;99.90
8611;DHT22;4343;53.648;10.098;2023-06-14T06:27:07;18.90;99.90
8611;DHT22;4343;53.648;10.098;2023-06-14T06:29:34;19.10;99.90
8611;DHT22;4343;53.648;10.098;2023-06-14T06:32:00;19.20;99.90
8611;DHT22;4343;53.648;10.098;2023-06-14T06:34:26;19.40;99.90
8611;DHT22;4343;53.648;10.098;2023-06-14T06:36:51;19.50;99.90
8611;DHT22;4343;53.648;10.098;2023-06-14T06:39:17;19.70;99.90
8611;DHT22;4343;53.648;10.098;2023-06-14T06:41:42;19.80;99.90
8611;DHT22;4343;53.648;10.098;2023-06-14T06:44:08;19.90;99.90
8611;DHT22;4343;53.648;10.098;2023-06-14T06:46:36;20.10;99.90
8611;DHT22;4343;53.648;10.098;2023-06-14T06:49:05;20.20;99.90
8611;DHT22;4343;53.648;10.098;2023-06-14T06:51:31;20.40;99.90
8611;DHT22;4343;53.648;10.098;2023-06-14T06:53:56;20.50;99.90
8611;DHT22;4343;53.648;10.098;2023-06-14T06:56:22;20.60;99.90
8611;DHT22;4343;53.648;10.098;2023-06-14T06:58:51;20.80;99.90
8611;DHT22;4343;53.648;10.098;2023-06-14T07:01:17;20.90;99.90
8611;DHT22;4343;53.648;10.098;2023-06-14T07:03:45;21.00;99.90
8611;DHT22;4343;53.648;10.098;2023-06-14T07:06:11;21.10;99.90
8611;DHT22;4343;53.648;10.098;2023-06-14T07:08:36;21.20;99.90
8611;DHT22;4343;53.648;10.098;2023-06-14T07:11:04;21.30;99.90
8611;DHT22;4343;53.648;10.098;2023-06-14T07:13:30;21.50;99.90
8611;DHT22;4343;53.648;10.098;2023-06-14T07:15:58;21.60;99.90
8611;DHT22;4343;53.648;10.098;2023-06-14T07:18:24;21.70;99.90
8611;DHT22;4343;53.648;10.098;2023-06-14T07:20:49;21.80;99.90
8611;DHT22;4343;53.648;10.098;2023-06-14T07:23:15;21.90;99.90
8611;DHT22;4343;53.648;10.098;2023-06-14T07:25:41;21.90;99.90
8611;DHT22;4343;53.648;10.098;2023-06-14T07:28:06;22.00;99.90
8611;DHT22;4343;53.648;10.098;2023-06-14T07:30:32;22.10;99.10
8611;DHT22;4343;53.648;10.098;2023-06-14T07:32:58;22.10;98.60
8611;DHT22;4343;53.648;10.098;2023-06-14T07:35:23;22.20;98.40
8611;DHT22;4343;53.648;10.098;2023-06-14T07:37:49;22.20;98.40
8611;DHT22;4343;53.648;10.098;2023-06-14T07:40:15;22.30;98.40
8611;DHT22;4343;53.648;10.098;2023-06-14T07:42:40;22.30;98.40
8611;DHT22;4343;53.648;10.098;2023-06-14T07:45:06;22.30;98.30
8611;DHT22;4343;53.648;10.098;2023-06-14T07:47:32;22.40;98.00
8611;DHT22;4343;53.648;10.098;2023-06-14T07:49:58;22.40;97.60
8611;DHT22;4343;53.648;10.098;2023-06-14T07:52:24;22.40;97.50
8611;DHT22;4343;53.648;10.098;2023-06-14T07:54:50;22.40;97.40
8611;DHT22;4343;53.648;10.098;2023-06-14T07:57:15;22.50;97.50
8611;DHT22;4343;53.648;10.098;2023-06-14T07:59:41;22.50;97.00
8611;DHT22;4343;53.648;10.098;2023-06-14T08:02:06;22.60;96.60
8611;DHT22;4343;53.648;10.098;2023-06-14T08:04:32;22.60;96.30
8611;DHT22;4343;53.648;10.098;2023-06-14T08:07:01;22.60;96.30
8611;DHT22;4343;53.648;10.098;2023-06-14T08:09:27;22.80;96.50
8611;DHT22;4343;53.648;10.098;2023-06-14T08:11:54;22.90;96.30
8611;DHT22;4343;53.648;10.098;2023-06-14T08:14:20;23.00;95.80
8611;DHT22;4343;53.648;10.098;2023-06-14T08:16:45;23.10;95.90
8611;DHT22;4343;53.648;10.098;2023-06-14T08:19:11;23.20;96.00
8611;DHT22;4343;53.648;10.098;2023-06-14T08:21:36;23.20;95.70
8611;DHT22;4343;53.648;10.098;2023-06-14T08:24:02;23.30;95.80
8611;DHT22;4343;53.648;10.098;2023-06-14T08:26:30;23.50;95.60
8611;DHT22;4343;53.648;10.098;2023-06-14T08:28:55;23.60;95.10
8611;DHT22;4343;53.648;10.098;2023-06-14T08:31:21;23.70;95.50
8611;DHT22;4343;53.648;10.098;2023-06-14T08:33:47;23.80;94.80
8611;DHT22;4343;53.648;10.098;2023-06-14T08:36:13;23.80;94.50
8611;DHT22;4343;53.648;10.098;2023-06-14T08:38:39;23.80;93.70
8611;DHT22;4343;53.648;10.098;2023-06-14T08:41:05;23.90;93.50
8611;DHT22;4343;53.648;10.098;2023-06-14T08:43:32;23.90;93.80
8611;DHT22;4343;53.648;10.098;2023-06-14T08:45:59;24.00;93.80
8611;DHT22;4343;53.648;10.098;2023-06-14T08:48:29;24.10;93.60
8611;DHT22;4343;53.648;10.098;2023-06-14T08:51:00;24.20;93.70
8611;DHT22;4343;53.648;10.098;2023-06-14T08:53:31;24.30;93.40
8611;DHT22;4343;53.648;10.098;2023-06-14T08:56:01;24.40;93.30
8611;DHT22;4343;53.648;10.098;2023-06-14T08:58:36;24.40;93.30
8611;DHT22;4343;53.648;10.098;2023-06-14T09:01:03;24.50;93.10
8611;DHT22;4343;53.648;10.098;2023-06-14T09:03:30;24.70;93.10
8611;DHT22;4343;53.648;10.098;2023-06-14T09:05:59;24.80;93.00
8611;DHT22;4343;53.648;10.098;2023-06-14T09:08:27;24.70;92.10
8611;DHT22;4343;53.648;10.098;2023-06-14T09:10:55;24.80;92.40
8611;DHT22;4343;53.648;10.098;2023-06-14T09:13:21;24.90;92.50
8611;DHT22;4343;53.648;10.098;2023-06-14T09:15:47;25.00;92.70
8611;DHT22;4343;53.648;10.098;2023-06-14T09:18:12;25.00;92.60
8611;DHT22;4343;53.648;10.098;2023-06-14T09:20:38;25.00;92.10
8611;DHT22;4343;53.648;10.098;2023-06-14T09:23:04;25.10;92.40
8611;DHT22;4343;53.648;10.098;2023-06-14T09:25:30;25.20;92.50
8611;DHT22;4343;53.648;10.098;2023-06-14T09:27:56;25.40;92.40
8611;DHT22;4343;53.648;10.098;2023-06-14T09:30:21;25.50;92.20
8611;DHT22;4343;53.648;10.098;2023-06-14T09:32:47;25.60;92.00
8611;DHT22;4343;53.648;10.098;2023-06-14T09:35:12;25.80;91.70
8611;DHT22;4343;53.648;10.098;2023-06-14T09:37:42;25.90;91.20
8611;DHT22;4343;53.648;10.098;2023-06-14T09:40:08;26.00;91.20
8611;DHT22;4343;53.648;10.098;2023-06-14T09:42:34;26.10;91.00
8611;DHT22;4343;53.648;10.098;2023-06-14T09:45:02;26.20;90.60
8611;DHT22;4343;53.648;10.098;2023-06-14T09:47:28;26.20;90.30
8611;DHT22;4343;53.648;10.098;2023-06-14T09:49:55;26.30;90.10
8611;DHT22;4343;53.648;10.098;2023-06-14T09:52:21;26.30;89.30
8611;DHT22;4343;53.648;10.098;2023-06-14T09:54:48;26.30;88.70
8611;DHT22;4343;53.648;10.098;2023-06-14T09:57:20;26.30;88.80
8611;DHT22;4343;53.648;10.098;2023-06-14T09:59:46;26.30;89.00
8611;DHT22;4343;53.648;10.098;2023-06-14T10:02:24;26.40;88.10
8611;DHT22;4343;53.648;10.098;2023-06-14T10:04:56;26.40;88.40
8611;DHT22;4343;53.648;10.098;2023-06-14T10:07:25;26.40;88.80
8611;DHT22;4343;53.648;10.098;2023-06-14T10:09:52;26.60;89.50
8611;DHT22;4343;53.648;10.098;2023-06-14T10:12:18;26.70;89.30
8611;DHT22;4343;53.648;10.098;2023-06-14T10:14:49;26.80;89.10
8611;DHT22;4343;53.648;10.098;2023-06-14T10:20:33;26.80;86.40
8611;DHT22;4343;53.648;10.098;2023-06-14T10:23:18;26.70;86.20
8611;DHT22;4343;53.648;10.098;2023-06-14T10:25:45;26.60;86.70
8611;DHT22;4343;53.648;10.098;2023-06-14T10:28:17;26.50;87.10
8611;DHT22;4343;53.648;10.098;2023-06-14T10:31:08;26.60;87.20
8611;DHT22;4343;53.648;10.098;2023-06-14T10:33:36;26.70;87.40
8611;DHT22;4343;53.648;10.098;2023-06-14T10:36:24;26.70;85.80
8611;DHT22;4343;53.648;10.098;2023-06-14T10:39:05;26.70;86.20
8611;DHT22;4343;53.648;10.098;2023-06-14T10:41:35;26.70;85.90
8611;DHT22;4343;53.648;10.098;2023-06-14T10:46:39;26.90;86.40
8611;DHT22;4343;53.648;10.098;2023-06-14T10:49:04;27.00;86.10
8611;DHT22;4343;53.648;10.098;2023-06-14T10:51:39;27.20;85.60
8611;DHT22;4343;53.648;10.098;2023-06-14T10:54:21;27.40;85.80
8611;DHT22;4343;53.648;10.098;2023-06-14T10:56:49;27.50;85.10
8611;DHT22;4343;53.648;10.098;2023-06-14T10:59:15;27.40;83.90
8611;DHT22;4343;53.648;10.098;2023-06-14T11:04:48;27.50;84.10
8611;DHT22;4343;53.648;10.098;2023-06-14T11:07:46;27.60;84.30
8611;DHT22;4343;53.648;10.098;2023-06-14T11:10:35;27.80;84.50
8611;DHT22;4343;53.648;10.098;2023-06-14T11:13:05;27.80;84.20
8611;DHT22;4343;53.648;10.098;2023-06-14T11:15:31;27.80;83.10
8611;DHT22;4343;53.648;10.098;2023-06-14T11:17:57;27.80;83.00
8611;DHT22;4343;53.648;10.098;2023-06-14T11:20:26;27.60;82.00
8611;DHT22;4343;53.648;10.098;2023-06-14T11:22:52;27.40;81.10
8611;DHT22;4343;53.648;10.098;2023-06-14T11:25:18;27.20;82.00
8611;DHT22;4343;53.648;10.098;2023-06-14T11:27:44;26.90;82.60
8611;DHT22;4343;53.648;10.098;2023-06-14T11:30:11;26.50;84.30
8611;DHT22;4343;53.648;10.098;2023-06-14T11:32:37;26.40;84.80
8611;DHT22;4343;53.648;10.098;2023-06-14T11:35:03;26.40;85.10
8611;DHT22;4343;53.648;10.098;2023-06-14T11:37:31;26.40;84.90
8611;DHT22;4343;53.648;10.098;2023-06-14T11:40:01;26.40;84.60
8611;DHT22;4343;53.648;10.098;2023-06-14T11:42:27;26.40;85.50
8611;DHT22;4343;53.648;10.098;2023-06-14T11:44:56;26.60;85.70
8611;DHT22;4343;53.648;10.098;2023-06-14T11:47:22;26.70;85.60
8611;DHT22;4343;53.648;10.098;2023-06-14T11:49:48;26.80;85.10
8611;DHT22;4343;53.648;10.098;2023-06-14T11:52:14;26.80;84.80
8611;DHT22;4343;53.648;10.098;2023-06-14T11:54:40;26.90;85.00
8611;DHT22;4343;53.648;10.098;2023-06-14T11:57:07;27.00;85.20
8611;DHT22;4343;53.648;10.098;2023-06-14T11:59:41;27.10;85.10
8611;DHT22;4343;53.648;10.098;2023-06-14T12:02:07;27.30;85.60
8611;DHT22;4343;53.648;10.098;2023-06-14T12:04:33;27.40;84.00
8611;DHT22;4343;53.648;10.098;2023-06-14T12:07:18;27.40;83.20
8611;DHT22;4343;53.648;10.098;2023-06-14T12:12:24;27.20;82.90
8611;DHT22;4343;53.648;10.098;2023-06-14T12:14:54;27.20;83.30
8611;DHT22;4343;53.648;10.098;2023-06-14T12:17:20;27.10;83.20
8611;DHT22;4343;53.648;10.098;2023-06-14T12:19:46;27.00;83.10
8611;DHT22;4343;53.648;10.098;2023-06-14T12:22:16;27.00;83.30
8611;DHT22;4343;53.648;10.098;2023-06-14T12:24:45;27.10;82.70
8611;DHT22;4343;53.648;10.098;2023-06-14T12:27:12;27.20;82.80
8611;DHT22;4343;53.648;10.098;2023-06-14T12:29:41;27.40;82.40
8611;DHT22;4343;53.648;10.098;2023-06-14T12:32:09;27.40;82.20
8611;DHT22;4343;53.648;10.098;2023-06-14T12:34:35;27.40;82.30
8611;DHT22;4343;53.648;10.098;2023-06-14T12:37:01;27.30;82.60
8611;DHT22;4343;53.648;10.098;2023-06-14T12:39:27;27.30;83.20
8611;DHT22;4343;53.648;10.098;2023-06-14T12:41:53;27.40;82.80
8611;DHT22;4343;53.648;10.098;2023-06-14T12:44:21;27.40;82.30
8611;DHT22;4343;53.648;10.098;2023-06-14T12:46:46;27.40;82.30
8611;DHT22;4343;53.648;10.098;2023-06-14T12:49:12;27.50;81.80
8611;DHT22;4343;53.648;10.098;2023-06-14T12:51:39;27.60;81.70
8611;DHT22;4343;53.648;10.098;2023-06-14T12:54:05;27.70;81.80
8611;DHT22;4343;53.648;10.098;2023-06-14T12:56:31;27.80;81.60
8611;DHT22;4343;53.648;10.098;2023-06-14T12:58:57;27.80;81.00
8611;DHT22;4343;53.648;10.098;2023-06-14T13:01:23;27.90;80.90
8611;DHT22;4343;53.648;10.098;2023-06-14T13:03:49;27.90;80.70
8611;DHT22;4343;53.648;10.098;2023-06-14T13:06:16;27.80;79.90
8611;DHT22;4343;53.648;10.098;2023-06-14T13:08:41;27.80;79.90
8611;DHT22;4343;53.648;10.098;2023-06-14T13:11:07;27.60;80.50
8611;DHT22;4343;53.648;10.098;2023-06-14T13:13:32;27.60;81.00
8611;DHT22;4343;53.648;10.098;2023-06-14T13:15:58;27.60;81.30
8611;DHT22;4343;53.648;10.098;2023-06-14T13:18:23;27.60;79.80
8611;DHT22;4343;53.648;10.098;2023-06-14T13:20:49;27.70;79.90
8611;DHT22;4343;53.648;10.098;2023-06-14T13:23:15;27.80;79.60
8611;DHT22;4343;53.648;10.098;2023-06-14T13:25:41;27.90;78.90
8611;DHT22;4343;53.648;10.098;2023-06-14T13:28:07;28.10;79.20
8611;DHT22;4343;53.648;10.098;2023-06-14T13:30:33;28.30;79.00
8611;DHT22;4343;53.648;10.098;2023-06-14T13:32:58;28.50;77.30
8611;DHT22;4343;53.648;10.098;2023-06-14T13:35:24;28.70;77.60
8611;DHT22;4343;53.648;10.098;2023-06-14T13:37:50;28.80;77.40
8611;DHT22;4343;53.648;10.098;2023-06-14T13:40:16;29.00;76.50
8611;DHT22;4343;53.648;10.098;2023-06-14T13:42:42;29.10;75.70
8611;DHT22;4343;53.648;10.098;2023-06-14T13:45:09;29.20;76.20
8611;DHT22;4343;53.648;10.098;2023-06-14T13:47:35;29.30;74.90
8611;DHT22;4343;53.648;10.098;2023-06-14T13:50:01;29.30;74.30
8611;DHT22;4343;53.648;10.098;2023-06-14T13:52:27;29.20;73.70
8611;DHT22;4343;53.648;10.098;2023-06-14T13:54:53;29.20;73.60
8611;DHT22;4343;53.648;10.098;2023-06-14T13:57:18;29.20;73.70
8611;DHT22;4343;53.648;10.098;2023-06-14T13:59:44;29.20;73.00
8611;DHT22;4343;53.648;10.098;2023-06-14T14:02:10;29.30;72.80
8611;DHT22;4343;53.648;10.098;2023-06-14T14:04:37;29.20;72.20
8611;DHT22;4343;53.648;10.098;2023-06-14T14:07:03;29.20;72.60
8611;DHT22;4343;53.648;10.098;2023-06-14T14:09:29;29.20;72.10
8611;DHT22;4343;53.648;10.098;2023-06-14T14:11:55;29.10;71.90
8611;DHT22;4343;53.648;10.098;2023-06-14T14:14:21;29.10;72.40
8611;DHT22;4343;53.648;10.098;2023-06-14T14:16:48;29.00;72.20
8611;DHT22;4343;53.648;10.098;2023-06-14T14:19:13;28.90;71.80
8611;DHT22;4343;53.648;10.098;2023-06-14T14:21:39;28.80;72.00
8611;DHT22;4343;53.648;10.098;2023-06-14T14:24:05;28.70;72.20
8611;DHT22;4343;53.648;10.098;2023-06-14T14:26:30;28.40;71.50
8611;DHT22;4343;53.648;10.098;2023-06-14T14:28:56;28.30;71.90
8611;DHT22;4343;53.648;10.098;2023-06-14T14:31:21;28.20;72.80
8611;DHT22;4343;53.648;10.098;2023-06-14T14:33:47;28.10;72.70
8611;DHT22;4343;53.648;10.098;2023-06-14T14:36:12;27.90;72.60
8611;DHT22;4343;53.648;10.098;2023-06-14T14:38:38;27.80;72.40
8611;DHT22;4343;53.648;10.098;2023-06-14T14:41:04;27.60;72.30
8611;DHT22;4343;53.648;10.098;2023-06-14T14:43:30;27.40;72.90
8611;DHT22;4343;53.648;10.098;2023-06-14T14:45:56;27.20;73.10
8611;DHT22;4343;53.648;10.098;2023-06-14T14:48:22;27.00;73.60
8611;DHT22;4343;53.648;10.098;2023-06-14T14:50:48;26.80;73.60
8611;DHT22;4343;53.648;10.098;2023-06-14T14:53:13;26.60;74.00
8611;DHT22;4343;53.648;10.098;2023-06-14T14:55:42;26.40;74.50
8611;DHT22;4343;53.648;10.098;2023-06-14T14:58:08;26.20;74.90
8611;DHT22;4343;53.648;10.098;2023-06-14T15:00:34;26.00;74.90
8611;DHT22;4343;53.648;10.098;2023-06-14T15:03:00;25.80;75.40
8611;DHT22;4343;53.648;10.098;2023-06-14T15:05:25;25.70;75.50
8611;DHT22;4343;53.648;10.098;2023-06-14T15:07:51;25.50;75.50
8611;DHT22;4343;53.648;10.098;2023-06-14T15:10:16;25.30;76.00
8611;DHT22;4343;53.648;10.098;2023-06-14T15:12:42;25.20;76.50
8611;DHT22;4343;53.648;10.098;2023-06-14T15:15:08;25.10;77.20
8611;DHT22;4343;53.648;10.098;2023-06-14T15:17:35;25.00;76.90
8611;DHT22;4343;53.648;10.098;2023-06-14T15:20:00;24.90;76.80
8611;DHT22;4343;53.648;10.098;2023-06-14T15:22:26;24.70;77.00
8611;DHT22;4343;53.648;10.098;2023-06-14T15:24:52;24.70;77.30
8611;DHT22;4343;53.648;10.098;2023-06-14T15:27:18;24.60;77.20
8611;DHT22;4343;53.648;10.098;2023-06-14T15:29:44;24.50;77.50
8611;DHT22;4343;53.648;10.098;2023-06-14T15:32:10;24.40;77.60
8611;DHT22;4343;53.648;10.098;2023-06-14T15:34:36;24.40;77.80
8611;DHT22;4343;53.648;10.098;2023-06-14T15:37:03;24.30;77.90
8611;DHT22;4343;53.648;10.098;2023-06-14T15:39:29;24.20;78.40
8611;DHT22;4343;53.648;10.098;2023-06-14T15:41:57;24.20;78.70
8611;DHT22;4343;53.648;10.098;2023-06-14T15:44:23;24.10;78.70
8611;DHT22;4343;53.648;10.098;2023-06-14T15:46:48;24.00;78.90
8611;DHT22;4343;53.648;10.098;2023-06-14T15:49:14;24.00;79.10
8611;DHT22;4343;53.648;10.098;2023-06-14T15:51:40;24.00;79.30
8611;DHT22;4343;53.648;10.098;2023-06-14T15:54:06;23.80;78.80
8611;DHT22;4343;53.648;10.098;2023-06-14T15:56:32;23.80;79.10
8611;DHT22;4343;53.648;10.098;2023-06-14T15:58:58;23.70;79.30